createdAt,value
2018-06-07T00:00:36.798Z,101054.73
2018-06-07T00:03:03.918Z,101053.95
2018-06-07T00:05:31.117Z,101049.74
2018-06-07T00:07:58.192Z,101049.94
2018-06-07T00:10:25.293Z,101043.80
2018-06-07T00:12:52.381Z,101044.38
2018-06-07T00:15:19.456Z,101042.23
2018-06-07T00:17:46.552Z,101041.81
2018-06-07T00:20:13.666Z,101048.87
2018-06-07T00:22:40.746Z,101047.47
2018-06-07T00:25:07.827Z,101046.56
2018-06-07T00:27:34.912Z,101044.03
2018-06-07T00:30:02.188Z,101045.30
2018-06-07T00:32:29.460Z,101046.44
2018-06-07T00:34:56.565Z,101044.36
2018-06-07T00:37:23.694Z,101044.03
2018-06-07T00:39:51.048Z,101044.56
2018-06-07T00:42:18.137Z,101043.50
2018-06-07T00:44:45.248Z,101047.05
2018-06-07T00:47:12.331Z,101050.84
2018-06-07T00:49:39.416Z,101046.57
2018-06-07T00:52:06.515Z,101039.84
2018-06-07T00:54:33.594Z,101045.11
2018-06-07T00:57:07.225Z,101046.45
2018-06-07T00:59:34.734Z,101044.41
2018-06-07T01:02:01.828Z,101045.80
2018-06-07T01:04:28.996Z,101044.24
2018-06-07T01:06:56.103Z,101039.91
2018-06-07T01:09:23.177Z,101041.39
2018-06-07T01:11:50.281Z,101039.59
2018-06-07T01:14:17.376Z,101040.36
2018-06-07T01:16:44.581Z,101036.53
2018-06-07T01:19:11.680Z,100988.09
2018-06-07T01:21:38.829Z,101043.41
2018-06-07T01:24:06.329Z,101043.48
2018-06-07T01:26:33.405Z,101049.09
2018-06-07T01:29:00.504Z,101048.46
2018-06-07T01:31:47.189Z,101040.61
2018-06-07T01:34:14.328Z,101043.47
2018-06-07T01:36:41.461Z,101046.07
2018-06-07T01:39:14.959Z,101043.46
2018-06-07T01:41:42.109Z,101036.64
2018-06-07T01:44:09.207Z,101046.59
2018-06-07T01:46:36.357Z,101041.53
2018-06-07T01:49:03.592Z,101035.38
2018-06-07T01:51:30.689Z,101036.55
2018-06-07T01:53:57.805Z,101034.14
2018-06-07T01:56:24.936Z,101033.59
2018-06-07T01:58:52.220Z,101032.18
2018-06-07T02:01:19.380Z,101035.46
2018-06-07T02:03:46.649Z,101033.34
2018-06-07T02:06:13.743Z,101034.97
2018-06-07T02:08:40.873Z,101032.14
2018-06-07T02:11:08.072Z,101027.44
2018-06-07T02:13:35.352Z,101024.86
2018-06-07T02:16:02.561Z,101031.42
2018-06-07T02:18:29.654Z,101029.16
2018-06-07T02:20:56.762Z,101024.08
2018-06-07T02:23:23.941Z,101027.98
2018-06-07T02:25:51.140Z,101024.28
2018-06-07T02:28:18.240Z,101018.11
2018-06-07T02:30:45.435Z,101022.25
2018-06-07T02:33:12.576Z,101021.35
2018-06-07T02:35:39.762Z,101017.75
2018-06-07T02:38:06.914Z,101018.47
2018-06-07T02:40:34.004Z,101024.79
2018-06-07T02:43:01.118Z,101026.66
2018-06-07T02:45:28.370Z,101022.86
2018-06-07T02:47:55.490Z,101022.65
2018-06-07T02:50:22.592Z,101030.79
2018-06-07T02:52:49.732Z,101036.28
2018-06-07T02:55:16.922Z,101029.03
2018-06-07T02:57:44.010Z,101034.39
2018-06-07T03:00:11.136Z,101045.23
2018-06-07T03:02:38.322Z,101046.10
2018-06-07T03:05:05.449Z,101048.00
2018-06-07T03:07:32.603Z,101051.14
2018-06-07T03:09:59.693Z,101050.28
2018-06-07T03:12:27.026Z,101057.88
2018-06-07T03:14:54.146Z,101048.02
2018-06-07T03:17:21.348Z,101051.47
2018-06-07T03:19:48.458Z,101055.76
2018-06-07T03:22:15.559Z,101051.16
2018-06-07T03:24:42.673Z,101056.69
2018-06-07T03:27:09.805Z,101056.06
2018-06-07T03:29:36.889Z,101052.59
2018-06-07T03:32:03.988Z,101060.17
2018-06-07T03:34:31.084Z,101055.44
2018-06-07T03:36:58.273Z,101058.92
2018-06-07T03:39:25.444Z,101067.83
2018-06-07T03:41:52.625Z,101061.11
2018-06-07T03:44:19.741Z,101055.67
2018-06-07T03:46:46.823Z,101060.00
2018-06-07T03:49:13.944Z,101062.55
2018-06-07T03:51:41.057Z,101057.96
2018-06-07T03:54:08.151Z,101069.33
2018-06-07T03:56:35.249Z,101067.89
2018-06-07T03:59:02.465Z,101072.02
2018-06-07T04:01:29.666Z,101074.63
2018-06-07T04:03:57.331Z,101074.76
2018-06-07T04:06:24.433Z,101080.05
2018-06-07T04:08:52.075Z,101081.97
2018-06-07T04:11:19.249Z,101081.80
2018-06-07T04:13:46.336Z,101080.53
2018-06-07T04:16:13.573Z,101086.05
2018-06-07T04:18:40.676Z,101087.47
2018-06-07T04:21:07.941Z,101089.36
2018-06-07T04:23:35.067Z,101094.09
2018-06-07T04:26:02.176Z,101093.61
2018-06-07T04:28:29.260Z,101091.39
2018-06-07T04:30:56.509Z,101097.48
2018-06-07T04:33:23.697Z,101096.70
2018-06-07T04:35:50.787Z,101093.98
2018-06-07T04:38:17.895Z,101104.81
2018-06-07T04:40:44.992Z,101101.17
2018-06-07T04:43:12.116Z,101092.59
2018-06-07T04:45:39.214Z,101099.26
2018-06-07T04:48:06.619Z,101097.80
2018-06-07T04:50:33.738Z,101109.59
2018-06-07T04:53:00.829Z,101110.30
2018-06-07T04:55:27.964Z,101112.89
2018-06-07T04:57:55.193Z,101104.44
2018-06-07T05:00:22.468Z,101108.72
2018-06-07T05:02:49.568Z,101110.05
2018-06-07T05:05:16.744Z,101106.86
2018-06-07T05:07:43.869Z,101108.63
2018-06-07T05:10:11.042Z,101110.75
2018-06-07T05:12:38.154Z,101103.27
2018-06-07T05:15:05.285Z,101099.16
2018-06-07T05:17:32.483Z,101107.67
2018-06-07T05:20:00.164Z,101105.59
2018-06-07T05:22:27.478Z,101103.36
2018-06-07T05:24:54.604Z,101108.11
2018-06-07T05:27:21.805Z,101103.45
2018-06-07T05:29:49.090Z,101103.95
2018-06-07T05:32:16.185Z,101109.08
2018-06-07T05:34:43.419Z,101107.70
2018-06-07T05:37:10.549Z,101113.56
2018-06-07T05:39:37.679Z,101107.55
2018-06-07T05:42:05.608Z,101099.12
2018-06-07T05:44:32.767Z,101095.26
2018-06-07T05:47:00.018Z,101101.21
2018-06-07T05:49:27.282Z,101096.42
2018-06-07T05:51:54.410Z,101097.83
2018-06-07T05:54:23.552Z,101094.58
2018-06-07T05:56:51.121Z,101096.84
2018-06-07T05:59:18.420Z,101093.78
2018-06-07T06:01:45.521Z,101100.85
2018-06-07T06:04:12.625Z,101101.94
2018-06-07T06:06:39.717Z,101105.34
2018-06-07T06:09:07.230Z,101102.34
2018-06-07T06:11:34.341Z,101102.27
2018-06-07T06:14:01.437Z,101105.53
2018-06-07T06:16:28.533Z,101108.20
2018-06-07T06:18:55.717Z,101110.47
2018-06-07T06:21:22.966Z,101108.88
2018-06-07T06:23:50.090Z,101110.68
2018-06-07T06:26:17.157Z,101114.13
2018-06-07T06:28:44.270Z,101129.47
2018-06-07T06:31:11.498Z,101124.30
2018-06-07T06:33:38.590Z,101126.56
2018-06-07T06:36:06.267Z,101133.16
2018-06-07T06:38:34.406Z,101136.56
2018-06-07T06:41:01.565Z,101132.35
2018-06-07T06:43:29.168Z,101132.66
2018-06-07T06:45:56.309Z,101130.09
2018-06-07T06:48:23.409Z,101135.05
2018-06-07T06:50:50.512Z,101121.66
2018-06-07T06:53:17.661Z,101125.59
2018-06-07T06:55:44.757Z,101127.45
2018-06-07T06:58:11.869Z,101129.25
2018-06-07T07:00:39.044Z,101133.89
2018-06-07T07:03:06.249Z,101139.25
2018-06-07T07:05:33.444Z,101135.69
2018-06-07T07:08:00.576Z,101136.49
2018-06-07T07:10:27.681Z,101133.02
2018-06-07T07:12:54.865Z,101133.37
2018-06-07T07:15:22.341Z,101127.23
2018-06-07T07:17:49.410Z,101125.89
2018-06-07T07:20:16.595Z,101123.31
2018-06-07T07:22:43.822Z,101118.81
2018-06-07T07:25:11.013Z,101116.95
2018-06-07T07:27:38.121Z,101120.80
2018-06-07T07:30:05.382Z,101113.06
2018-06-07T07:32:32.472Z,101109.82
2018-06-07T07:34:59.686Z,101110.79
2018-06-07T07:37:26.929Z,101106.25
2018-06-07T07:39:59.314Z,101098.62
2018-06-07T07:42:34.508Z,101108.91
2018-06-07T07:45:09.089Z,101102.48
2018-06-07T07:47:36.185Z,101105.72
2018-06-07T07:50:03.373Z,101100.69
2018-06-07T07:52:30.728Z,101098.58
2018-06-07T07:54:57.828Z,101102.97
2018-06-07T07:57:24.932Z,101097.54
2018-06-07T07:59:52.290Z,101094.99
2018-06-07T08:02:19.384Z,101090.44
2018-06-07T08:04:46.573Z,101096.65
2018-06-07T08:07:13.677Z,101096.90
2018-06-07T08:09:40.852Z,101101.89
2018-06-07T08:12:08.042Z,101098.44
2018-06-07T08:14:35.526Z,101097.84
2018-06-07T08:17:02.680Z,101091.85
2018-06-07T08:19:30.200Z,101089.64
2018-06-07T08:21:57.352Z,101091.70
2018-06-07T08:24:24.442Z,101083.58
2018-06-07T08:26:51.602Z,101083.77
2018-06-07T08:29:18.724Z,101084.61
2018-06-07T08:31:45.898Z,101079.71
2018-06-07T08:34:13.100Z,101078.61
2018-06-07T08:36:40.210Z,101082.75
2018-06-07T08:39:07.784Z,101083.78
2018-06-07T08:41:34.965Z,101085.13
2018-06-07T08:44:02.158Z,101082.72
2018-06-07T08:46:29.365Z,101084.30
2018-06-07T08:48:56.494Z,101079.52
2018-06-07T08:51:23.715Z,101079.15
2018-06-07T08:53:50.964Z,101079.03
2018-06-07T08:56:18.208Z,101077.63
2018-06-07T08:58:45.296Z,101078.50
2018-06-07T09:01:12.408Z,101082.61
2018-06-07T09:03:39.603Z,101081.37
2018-06-07T09:06:06.790Z,101082.25
2018-06-07T09:08:33.882Z,101076.96
2018-06-07T09:11:01.008Z,101086.12
2018-06-07T09:13:28.108Z,101084.05
2018-06-07T09:15:55.206Z,101078.78
2018-06-07T09:18:22.410Z,101082.38
2018-06-07T09:20:49.530Z,101077.20
2018-06-07T09:23:16.728Z,101078.64
2018-06-07T09:25:44.162Z,101083.89
2018-06-07T09:28:11.260Z,101077.23
2018-06-07T09:30:38.368Z,101071.31
2018-06-07T09:33:06.597Z,101071.58
2018-06-07T09:35:33.697Z,101069.12
2018-06-07T09:38:00.805Z,101076.70
2018-06-07T09:40:27.913Z,101078.20
2018-06-07T09:42:55.153Z,101076.25
2018-06-07T09:45:22.507Z,101074.96
2018-06-07T09:47:49.636Z,101064.00
2018-06-07T09:50:16.728Z,101062.30
2018-06-07T09:52:43.863Z,101055.55
2018-06-07T09:55:13.244Z,101062.06
2018-06-07T09:57:41.437Z,101063.91
2018-06-07T10:00:08.748Z,101054.70
2018-06-07T10:02:35.943Z,101067.58
2018-06-07T10:05:03.186Z,101054.01
2018-06-07T10:07:30.315Z,101056.46
2018-06-07T10:09:57.434Z,101048.13
2018-06-07T10:12:24.703Z,101056.38
2018-06-07T10:14:51.923Z,101055.05
2018-06-07T10:17:19.026Z,101054.77
2018-06-07T10:19:46.238Z,101056.05
2018-06-07T10:22:13.477Z,101051.55
2018-06-07T10:24:40.505Z,101047.96
2018-06-07T10:27:07.556Z,101049.70
2018-06-07T10:29:34.595Z,101048.61
2018-06-07T10:32:01.626Z,101045.34
2018-06-07T10:34:28.964Z,101049.81
2018-06-07T10:36:56.008Z,101042.55
2018-06-07T10:39:30.034Z,101048.98
2018-06-07T10:41:57.086Z,101044.41
2018-06-07T10:44:24.124Z,101046.19
2018-06-07T10:46:51.133Z,101046.59
2018-06-07T10:49:18.150Z,101042.70
2018-06-07T10:51:45.246Z,101040.25
2018-06-07T10:54:12.259Z,101033.88
2018-06-07T10:56:39.300Z,101036.80
2018-06-07T10:59:06.422Z,101036.44
2018-06-07T11:01:33.445Z,101043.78
2018-06-07T11:04:00.473Z,101026.39
2018-06-07T11:06:27.602Z,101029.02
2018-06-07T11:08:54.799Z,101027.91
2018-06-07T11:11:21.977Z,101026.61
2018-06-07T11:13:49.004Z,101024.05
2018-06-07T11:16:16.018Z,101029.23
2018-06-07T11:18:49.894Z,101026.33
2018-06-07T11:21:16.951Z,101013.83
2018-06-07T11:23:45.961Z,101009.43
2018-06-07T11:26:11.197Z,101008.20
2018-06-07T11:28:39.399Z,101014.19
2018-06-07T11:31:06.810Z,101003.94
2018-06-07T11:33:33.821Z,101004.41
2018-06-07T11:36:01.010Z,101000.53
2018-06-07T11:38:28.050Z,101006.14
2018-06-07T11:40:55.191Z,100998.84
2018-06-07T11:43:22.173Z,100999.76
2018-06-07T11:45:49.291Z,100997.66
2018-06-07T11:48:16.289Z,101002.38
2018-06-07T11:50:43.390Z,100995.53
2018-06-07T11:53:10.726Z,100995.08
2018-06-07T11:55:37.818Z,100987.81
2018-06-07T11:58:04.863Z,100987.38
2018-06-07T12:00:31.882Z,100986.94
2018-06-07T12:02:59.030Z,100981.73
2018-06-07T12:05:26.074Z,100983.09
2018-06-07T12:07:53.090Z,100980.53
2018-06-07T12:10:20.135Z,100980.09
2018-06-07T12:12:47.327Z,100964.64
2018-06-07T12:15:14.450Z,100965.87
2018-06-07T12:17:41.508Z,100965.80
2018-06-07T12:20:08.531Z,100965.66
2018-06-07T12:22:35.539Z,100973.33
2018-06-07T12:25:02.630Z,100968.55
2018-06-07T12:27:29.675Z,100974.87
2018-06-07T12:29:56.721Z,100970.56
2018-06-07T12:32:23.971Z,100972.66
2018-06-07T12:34:51.072Z,100972.48
2018-06-07T12:37:18.086Z,100969.70
2018-06-07T12:39:45.146Z,100966.16
2018-06-07T12:42:12.174Z,100956.56
2018-06-07T12:44:39.276Z,100955.22
2018-06-07T12:47:06.385Z,100956.86
2018-06-07T12:49:33.342Z,100955.56
2018-06-07T12:52:00.745Z,100957.52
2018-06-07T12:54:27.861Z,100953.64
2018-06-07T12:56:55.006Z,100943.72
2018-06-07T12:59:22.119Z,100953.07
2018-06-07T13:01:49.284Z,100945.16
2018-06-07T13:04:16.409Z,100944.93
2018-06-07T13:06:43.438Z,100940.50
2018-06-07T13:09:10.565Z,100939.52
2018-06-07T13:11:37.617Z,100939.23
2018-06-07T13:14:04.650Z,100931.60
2018-06-07T13:16:31.686Z,100936.75
2018-06-07T13:18:59.110Z,100930.70
2018-06-07T13:21:26.137Z,100925.55
2018-06-07T13:23:53.165Z,100919.73
2018-06-07T13:26:20.216Z,100924.33
2018-06-07T13:28:47.307Z,100924.63
2018-06-07T13:31:14.371Z,100916.61
2018-06-07T13:33:41.406Z,100918.34
2018-06-07T13:36:08.511Z,100914.74
2018-06-07T13:38:35.554Z,100912.70
2018-06-07T13:41:02.891Z,100915.34
2018-06-07T13:43:30.011Z,100908.43
2018-06-07T13:45:57.158Z,100901.65
2018-06-07T13:48:24.500Z,100903.18
2018-06-07T13:50:51.554Z,100900.00
2018-06-07T13:53:18.646Z,100904.47
2018-06-07T13:55:45.891Z,100903.89
2018-06-07T13:58:12.923Z,100900.94
2018-06-07T14:00:40.031Z,100895.16
2018-06-07T14:03:07.065Z,100889.22
2018-06-07T14:05:34.199Z,100896.95
2018-06-07T14:08:01.354Z,100894.47
2018-06-07T14:10:28.398Z,100892.23
2018-06-07T14:12:55.437Z,100891.05
2018-06-07T14:15:22.475Z,100889.76
2018-06-07T14:17:49.491Z,100885.78
2018-06-07T14:20:16.525Z,100889.19
2018-06-07T14:22:43.634Z,100889.08
2018-06-07T14:25:10.765Z,100883.53
2018-06-07T14:27:37.933Z,100883.59
2018-06-07T14:30:04.966Z,100878.97
2018-06-07T14:32:32.085Z,100877.37
2018-06-07T14:34:59.158Z,100883.30
2018-06-07T14:37:26.258Z,100875.45
2018-06-07T14:39:53.285Z,100876.95
2018-06-07T14:42:20.366Z,100875.98
2018-06-07T14:44:47.375Z,100875.95
2018-06-07T14:47:14.425Z,100875.47
2018-06-07T14:49:41.572Z,100868.54
2018-06-07T14:52:08.592Z,100861.07
2018-06-07T14:54:35.703Z,100869.77
2018-06-07T14:57:02.854Z,100867.05
2018-06-07T14:59:29.969Z,100864.55
2018-06-07T15:01:57.002Z,100861.17
2018-06-07T15:04:24.246Z,100862.84
2018-06-07T15:06:51.327Z,100861.03
2018-06-07T15:09:18.365Z,100863.66
2018-06-07T15:11:45.383Z,100860.27
2018-06-07T15:14:12.451Z,100847.61
2018-06-07T15:16:39.570Z,100846.72
2018-06-07T15:19:06.700Z,100852.27
2018-06-07T15:21:33.773Z,100849.70
2018-06-07T15:24:00.898Z,100850.63
2018-06-07T15:26:27.927Z,100845.67
2018-06-07T15:28:55.051Z,100842.04
2018-06-07T15:31:22.152Z,100839.77
2018-06-07T15:33:49.175Z,100839.65
2018-06-07T15:36:16.515Z,100839.19
2018-06-07T15:38:43.533Z,100835.58
2018-06-07T15:41:10.555Z,100835.97
2018-06-07T15:43:37.582Z,100830.31
2018-06-07T15:46:04.898Z,100833.83
2018-06-07T15:48:31.909Z,100829.72
2018-06-07T15:50:59.014Z,100826.42
2018-06-07T15:53:26.227Z,100813.30
2018-06-07T15:55:53.337Z,100814.26
2018-06-07T15:58:20.381Z,100818.14
2018-06-07T16:00:47.406Z,100812.48
2018-06-07T16:03:14.522Z,100811.73
2018-06-07T16:05:41.598Z,100807.80
2018-06-07T16:08:08.643Z,100809.45
2018-06-07T16:10:35.681Z,100806.67
2018-06-07T16:13:02.827Z,100806.34
2018-06-07T16:15:29.846Z,100810.25
2018-06-07T16:17:56.942Z,100812.06
2018-06-07T16:20:24.194Z,100811.52
2018-06-07T16:22:51.401Z,100815.80
2018-06-07T16:25:18.495Z,100817.05
2018-06-07T16:27:45.610Z,100817.49
2018-06-07T16:30:12.719Z,100811.66
2018-06-07T16:32:39.880Z,100813.70
2018-06-07T16:35:06.954Z,100810.45
2018-06-07T16:37:34.038Z,100812.53
2018-06-07T16:40:01.083Z,100811.91
2018-06-07T16:42:28.207Z,100811.47
2018-06-07T16:44:55.423Z,100811.92
2018-06-07T16:47:22.496Z,100809.81
2018-06-07T16:49:49.609Z,100810.81
2018-06-07T16:52:17.035Z,100814.02
2018-06-07T16:54:44.077Z,100808.30
2018-06-07T16:57:11.089Z,100805.70
2018-06-07T16:59:38.180Z,100803.00
2018-06-07T17:02:05.252Z,100802.89
2018-06-07T17:04:32.282Z,100797.83
2018-06-07T17:06:59.312Z,100802.42
2018-06-07T17:09:26.579Z,100802.38
2018-06-07T17:11:53.594Z,100795.39
2018-06-07T17:14:20.614Z,100796.80
2018-06-07T17:16:47.736Z,100799.16
2018-06-07T17:19:14.851Z,100790.92
2018-06-07T17:21:41.960Z,100784.52
2018-06-07T17:24:09.266Z,100786.86
2018-06-07T17:26:36.367Z,100787.65
2018-06-07T17:29:03.494Z,100786.27
2018-06-07T17:31:30.518Z,100789.84
2018-06-07T17:33:57.663Z,100789.04
2018-06-07T17:36:24.679Z,100790.41
2018-06-07T17:38:51.711Z,100790.38
2018-06-07T17:41:18.718Z,100792.55
2018-06-07T17:43:45.741Z,100790.89
2018-06-07T17:46:12.775Z,100798.27
2018-06-07T17:48:39.923Z,100799.99
2018-06-07T17:51:06.942Z,100801.66
2018-06-07T17:53:33.973Z,100800.89
2018-06-07T17:56:00.986Z,100797.89
2018-06-07T17:58:28.078Z,100798.78
2018-06-07T18:00:55.309Z,100801.44
2018-06-07T18:03:22.410Z,100800.97
2018-06-07T18:05:49.506Z,100796.69
2018-06-07T18:08:16.605Z,100801.85
2018-06-07T18:10:43.698Z,100789.91
2018-06-07T18:13:10.758Z,100801.92
2018-06-07T18:15:37.806Z,100803.63
2018-06-07T18:18:04.933Z,100804.09
2018-06-07T18:20:31.951Z,100807.96
2018-06-07T18:22:59.038Z,100807.99
2018-06-07T18:25:26.052Z,100802.41
2018-06-07T18:27:53.165Z,100798.55
2018-06-07T18:30:20.290Z,100803.72
2018-06-07T18:32:47.404Z,100808.86
2018-06-07T18:35:14.503Z,100799.41
2018-06-07T18:37:41.611Z,100801.91
2018-06-07T18:40:08.750Z,100798.88
2018-06-07T18:42:35.900Z,100797.17
2018-06-07T18:45:02.970Z,100802.23
2018-06-07T18:47:30.156Z,100800.52
2018-06-07T18:49:57.450Z,100807.72
2018-06-07T18:52:24.460Z,100808.55
2018-06-07T18:54:51.578Z,100814.09
2018-06-07T18:57:18.679Z,100811.84
2018-06-07T18:59:45.738Z,100810.08
2018-06-07T19:02:12.858Z,100817.78
2018-06-07T19:04:39.876Z,100819.38
2018-06-07T19:07:11.498Z,100815.91
2018-06-07T19:09:44.306Z,100817.09
2018-06-07T19:12:11.412Z,100815.32
2018-06-07T19:14:44.355Z,100818.14
2018-06-07T19:17:11.653Z,100813.80
2018-06-07T19:19:44.321Z,100819.78
2018-06-07T19:22:11.389Z,100822.75
2018-06-07T19:24:38.487Z,100818.73
2018-06-07T19:27:11.243Z,100822.91
2018-06-07T19:29:38.283Z,100818.52
2018-06-07T19:32:11.214Z,100817.88
2018-06-07T19:34:43.891Z,100825.17
2018-06-07T19:37:11.103Z,100825.43
2018-06-07T19:39:43.843Z,100831.38
2018-06-07T19:42:12.945Z,100827.73
2018-06-07T19:44:39.962Z,100833.24
2018-06-07T19:47:07.014Z,100832.39
2018-06-07T19:49:34.121Z,100831.91
2018-06-07T19:52:01.155Z,100837.80
2018-06-07T19:54:28.358Z,100844.05
2018-06-07T19:56:55.468Z,100847.84
2018-06-07T19:59:22.657Z,100849.79
2018-06-07T20:01:49.865Z,100853.09
2018-06-07T20:04:16.888Z,100848.78
2018-06-07T20:06:43.897Z,100846.86
2018-06-07T20:09:11.271Z,100843.94
2018-06-07T20:11:38.486Z,100842.16
2018-06-07T20:14:05.557Z,100841.94
2018-06-07T20:16:32.672Z,100842.69
2018-06-07T20:18:59.713Z,100843.84
2018-06-07T20:21:26.897Z,100842.20
2018-06-07T20:23:53.910Z,100847.80
2018-06-07T20:26:21.025Z,100843.05
2018-06-07T20:28:48.164Z,100848.66
2018-06-07T20:31:15.271Z,100843.86
2018-06-07T20:33:42.881Z,100843.00
2018-06-07T20:36:09.915Z,100844.05
2018-06-07T20:38:37.047Z,100842.97
2018-06-07T20:41:04.150Z,100849.59
2018-06-07T20:43:31.167Z,100845.75
2018-06-07T20:45:58.541Z,100849.75
2018-06-07T20:48:25.571Z,100850.00
2018-06-07T20:50:52.672Z,100843.23
2018-06-07T20:53:19.986Z,100844.33
2018-06-07T20:55:46.994Z,100845.44
2018-06-07T20:58:14.061Z,100845.58
2018-06-07T21:00:41.081Z,100850.28
2018-06-07T21:03:08.189Z,100847.31
2018-06-07T21:05:35.249Z,100845.88
2018-06-07T21:08:02.314Z,100841.94
2018-06-07T21:10:29.504Z,100843.37
2018-06-07T21:12:56.590Z,100838.09
2018-06-07T21:15:23.642Z,100835.41
2018-06-07T21:17:50.655Z,100841.94
2018-06-07T21:20:17.687Z,100835.75
2018-06-07T21:22:44.800Z,100839.14
2018-06-07T21:25:12.062Z,100838.16
2018-06-07T21:27:39.191Z,100834.73
2018-06-07T21:30:06.246Z,100827.36
2018-06-07T21:32:33.369Z,100828.97
2018-06-07T21:35:00.405Z,100829.77
2018-06-07T21:37:27.430Z,100827.83
2018-06-07T21:39:54.469Z,100827.05
2018-06-07T21:42:21.638Z,100824.99
2018-06-07T21:44:48.684Z,100821.53
2018-06-07T21:47:15.694Z,100824.33
2018-06-07T21:49:42.718Z,100818.27
2018-06-07T21:52:09.834Z,100823.37
2018-06-07T21:54:36.878Z,100811.13
2018-06-07T21:57:03.971Z,100816.16
2018-06-07T21:59:30.974Z,100814.96
2018-06-07T22:01:58.122Z,100817.52
2018-06-07T22:04:25.137Z,100817.26
2018-06-07T22:06:52.238Z,100816.82
2018-06-07T22:09:19.257Z,100821.84
2018-06-07T22:11:46.269Z,100823.48
2018-06-07T22:14:13.377Z,100818.69
2018-06-07T22:16:40.420Z,100821.16
2018-06-07T22:19:07.512Z,100825.06
2018-06-07T22:21:34.534Z,100829.92
2018-06-07T22:24:01.796Z,100822.66
2018-06-07T22:26:28.828Z,100821.52
2018-06-07T22:28:55.832Z,100819.13
2018-06-07T22:31:22.954Z,100819.29
2018-06-07T22:33:49.974Z,100817.16
2018-06-07T22:36:16.980Z,100814.09
2018-06-07T22:38:44.078Z,100815.77
2018-06-07T22:41:11.100Z,100812.14
2018-06-07T22:43:38.121Z,100802.26
2018-06-07T22:46:05.156Z,100805.22
2018-06-07T22:48:32.250Z,100807.06
2018-06-07T22:50:59.280Z,100805.63
2018-06-07T22:53:26.518Z,100802.78
2018-06-07T22:55:53.690Z,100804.33
2018-06-07T22:58:20.806Z,100797.81
2018-06-07T23:00:48.168Z,100794.91
2018-06-07T23:03:15.190Z,100794.91
2018-06-07T23:05:42.208Z,100797.31
2018-06-07T23:08:09.223Z,100790.61
2018-06-07T23:10:36.369Z,100794.55
2018-06-07T23:13:03.393Z,100790.41
2018-06-07T23:15:30.445Z,100794.29
2018-06-07T23:17:57.461Z,100795.56
2018-06-07T23:20:24.562Z,100790.41
2018-06-07T23:22:51.683Z,100785.76
2018-06-07T23:25:18.690Z,100782.77
2018-06-07T23:27:45.793Z,100776.66
2018-06-07T23:30:12.827Z,100773.23
2018-06-07T23:32:40.052Z,100777.94
2018-06-07T23:35:07.091Z,100773.62
2018-06-07T23:37:34.127Z,100770.83
2018-06-07T23:40:01.174Z,100766.51
2018-06-07T23:42:28.268Z,100766.00
2018-06-07T23:44:55.278Z,100765.27
2018-06-07T23:47:22.436Z,100765.81
2018-06-07T23:49:49.569Z,100763.23
2018-06-07T23:52:16.606Z,100770.64
2018-06-07T23:54:43.746Z,100771.81
2018-06-07T23:57:10.775Z,100767.78
2018-06-07T23:59:37.782Z,100762.13
